createdAt,value
2023-02-13T00:01:25.574Z,62.70
2023-02-13T00:03:53.772Z,70.18
2023-02-13T00:06:22.967Z,68.07
2023-02-13T00:08:50.889Z,60.75
2023-02-13T00:11:20.703Z,60.38
2023-02-13T00:13:48.590Z,47.88
2023-02-13T00:16:16.545Z,55.75
2023-02-13T00:18:44.531Z,41.72
2023-02-13T00:21:14.021Z,53.22
2023-02-13T00:23:42.059Z,51.85
2023-02-13T00:26:12.908Z,51.10
2023-02-13T00:28:46.047Z,51.20
2023-02-13T00:31:17.948Z,31.30
2023-02-13T00:33:46.329Z,46.42
2023-02-13T00:36:17.427Z,48.75
2023-02-13T00:38:47.247Z,55.03
2023-02-13T00:41:17.503Z,53.90
2023-02-13T00:43:46.953Z,50.50
2023-02-13T00:46:16.685Z,47.65
2023-02-13T00:48:45.278Z,50.60
2023-02-13T00:51:13.209Z,58.38
2023-02-13T00:53:41.417Z,57.47
2023-02-13T00:56:09.913Z,53.17
2023-02-13T00:58:39.060Z,50.05
2023-02-13T01:01:07.179Z,53.42
2023-02-13T01:03:36.139Z,46.47
2023-02-13T01:06:04.506Z,50.85
2023-02-13T01:08:34.789Z,48.67
2023-02-13T01:11:02.675Z,41.92
2023-02-13T01:13:30.957Z,43.58
2023-02-13T01:15:59.100Z,47.80
2023-02-13T01:18:27.202Z,46.95
2023-02-13T01:20:59.286Z,50.38
2023-02-13T01:23:33.195Z,48.25
2023-02-13T01:26:03.504Z,46.17
2023-02-13T01:28:31.517Z,48.70
2023-02-13T01:31:00.471Z,43.70
2023-02-13T01:33:30.094Z,48.83
2023-02-13T01:35:58.324Z,52.08
2023-02-13T01:38:26.421Z,45.30
2023-02-13T01:40:55.656Z,47.80
2023-02-13T01:43:25.579Z,42.75
2023-02-13T01:45:57.242Z,43.90
2023-02-13T01:48:27.512Z,48.40
2023-02-13T01:51:04.245Z,44.00
2023-02-13T01:53:35.253Z,31.70
2023-02-13T01:56:25.858Z,30.33
2023-02-13T01:58:58.746Z,42.65
2023-02-13T02:01:28.169Z,47.43
2023-02-13T02:04:00.852Z,43.13
2023-02-13T02:06:41.112Z,45.90
2023-02-13T02:09:23.375Z,48.15
2023-02-13T02:12:11.958Z,50.08
2023-02-13T02:14:41.458Z,55.25
2023-02-13T02:17:12.221Z,56.47
2023-02-13T02:19:54.872Z,47.13
2023-02-13T02:22:50.391Z,49.70
2023-02-13T02:25:59.388Z,47.47
2023-02-13T02:28:36.770Z,45.67
2023-02-13T02:31:38.025Z,47.63
2023-02-13T02:34:30.707Z,45.20
2023-02-13T02:36:58.683Z,51.70
2023-02-13T02:39:35.990Z,45.10
2023-02-13T02:42:21.938Z,45.55
2023-02-13T02:45:08.234Z,45.30
2023-02-13T02:48:18.121Z,47.08
2023-02-13T02:51:05.540Z,35.10
2023-02-13T02:53:44.565Z,41.05
2023-02-13T02:56:15.745Z,42.97
2023-02-13T02:59:07.027Z,42.65
2023-02-13T03:01:56.433Z,31.67
2023-02-13T03:04:52.224Z,41.00
2023-02-13T03:07:21.307Z,38.15
2023-02-13T03:10:12.405Z,34.92
2023-02-13T03:13:06.511Z,36.10
2023-02-13T03:15:57.363Z,32.70
2023-02-13T03:18:44.677Z,36.88
2023-02-13T03:21:41.316Z,38.63
2023-02-13T03:24:39.113Z,32.58
2023-02-13T03:27:10.028Z,35.30
2023-02-13T03:30:08.186Z,34.38
2023-02-13T03:32:51.243Z,35.05
2023-02-13T03:36:14.649Z,38.97
2023-02-13T03:39:17.821Z,34.65
2023-02-13T03:42:02.839Z,25.30
2023-02-13T03:44:40.376Z,31.85
2023-02-13T03:47:10.920Z,26.63
2023-02-13T03:50:07.279Z,33.92
2023-02-13T03:52:59.957Z,30.95
2023-02-13T03:55:54.273Z,31.88
2023-02-13T03:58:48.420Z,24.67
2023-02-13T04:01:20.666Z,26.42
2023-02-13T04:03:57.447Z,29.45
2023-02-13T04:06:34.648Z,34.08
2023-02-13T04:09:02.995Z,31.58
2023-02-13T04:11:48.361Z,38.75
2023-02-13T04:14:28.943Z,36.28
2023-02-13T04:17:04.792Z,35.00
2023-02-13T04:19:34.077Z,33.78
2023-02-13T04:22:03.098Z,33.67
2023-02-13T04:24:32.178Z,32.47
2023-02-13T04:27:00.387Z,31.88
2023-02-13T04:29:28.681Z,32.78
2023-02-13T04:31:56.737Z,39.55
2023-02-13T04:34:24.647Z,35.67
2023-02-13T04:36:52.562Z,37.88
2023-02-13T04:39:20.584Z,36.83
2023-02-13T04:41:48.551Z,35.63
2023-02-13T04:44:16.513Z,32.65
2023-02-13T04:46:44.776Z,29.98
2023-02-13T04:49:13.170Z,27.67
2023-02-13T04:51:41.249Z,19.25
2023-02-13T04:54:10.678Z,26.80
2023-02-13T04:56:38.552Z,33.80
2023-02-13T04:59:06.553Z,34.13
2023-02-13T05:01:34.607Z,30.83
2023-02-13T05:04:03.415Z,33.38
2023-02-13T05:06:31.362Z,29.38
2023-02-13T05:08:59.520Z,28.33
2023-02-13T05:11:27.469Z,32.92
2023-02-13T05:13:55.612Z,31.48
2023-02-13T05:16:23.661Z,38.33
2023-02-13T05:18:55.084Z,32.92
2023-02-13T05:21:41.969Z,38.20
2023-02-13T05:24:10.223Z,34.70
2023-02-13T05:26:38.898Z,33.47
2023-02-13T05:29:19.082Z,37.33
2023-02-13T05:31:49.013Z,28.90
2023-02-13T05:34:17.706Z,21.70
2023-02-13T05:36:46.022Z,33.53
2023-02-13T05:39:15.352Z,31.73
2023-02-13T05:41:45.548Z,30.85
2023-02-13T05:44:14.976Z,24.10
2023-02-13T05:46:45.006Z,21.55
2023-02-13T05:49:14.633Z,23.25
2023-02-13T05:51:43.647Z,17.08
2023-02-13T05:54:11.595Z,24.45
2023-02-13T05:56:40.038Z,23.08
2023-02-13T05:59:09.393Z,25.60
2023-02-13T06:01:38.024Z,26.13
2023-02-13T06:04:06.593Z,33.80
2023-02-13T06:06:35.753Z,27.88
2023-02-13T06:09:04.106Z,24.20
2023-02-13T06:11:32.263Z,24.75
2023-02-13T06:14:00.552Z,23.75
2023-02-13T06:16:30.492Z,16.13
2023-02-13T06:18:58.647Z,13.07
2023-02-13T06:21:27.963Z,23.95
2023-02-13T06:23:56.370Z,25.35
2023-02-13T06:26:24.411Z,21.58
2023-02-13T06:28:52.948Z,37.00
2023-02-13T06:31:21.398Z,33.83
2023-02-13T06:33:49.984Z,39.20
2023-02-13T06:36:18.097Z,26.73
2023-02-13T06:38:46.541Z,27.20
2023-02-13T06:41:14.529Z,29.02
2023-02-13T06:43:42.537Z,34.08
2023-02-13T06:46:10.983Z,48.80
2023-02-13T06:48:39.331Z,24.13
2023-02-13T06:51:07.425Z,20.35
2023-02-13T06:53:35.471Z,26.75
2023-02-13T06:56:06.871Z,17.73
2023-02-13T06:58:35.525Z,19.63
2023-02-13T07:01:03.605Z,21.13
2023-02-13T07:03:34.729Z,20.33
2023-02-13T07:06:02.866Z,23.60
2023-02-13T07:08:31.810Z,20.23
2023-02-13T07:11:00.920Z,21.50
2023-02-13T07:13:29.221Z,20.77
2023-02-13T07:16:01.309Z,23.15
2023-02-13T07:18:29.542Z,32.63
2023-02-13T07:20:58.577Z,31.25
2023-02-13T07:23:26.831Z,29.10
2023-02-13T07:25:54.944Z,36.63
2023-02-13T07:28:22.981Z,35.58
2023-02-13T07:30:51.712Z,35.00
2023-02-13T07:33:28.000Z,26.48
2023-02-13T07:36:33.895Z,28.15
2023-02-13T07:39:05.307Z,25.67
2023-02-13T07:41:33.628Z,27.73
2023-02-13T07:44:01.741Z,36.53
2023-02-13T07:46:30.537Z,24.42
2023-02-13T07:48:58.494Z,24.80
2023-02-13T07:51:26.460Z,27.90
2023-02-13T07:53:56.553Z,25.27
2023-02-13T07:56:24.999Z,22.63
2023-02-13T07:58:53.001Z,23.42
2023-02-13T08:01:21.406Z,24.17
2023-02-13T08:03:54.038Z,24.35
2023-02-13T08:06:23.701Z,23.05
2023-02-13T08:09:14.496Z,20.70
2023-02-13T08:11:54.677Z,20.08
2023-02-13T08:14:27.576Z,20.33
2023-02-13T08:16:56.874Z,22.80
2023-02-13T08:19:25.112Z,21.77
2023-02-13T08:21:55.871Z,23.45
2023-02-13T08:24:24.117Z,22.08
2023-02-13T08:26:54.485Z,21.65
2023-02-13T08:29:22.552Z,21.33
2023-02-13T08:31:51.322Z,21.17
2023-02-13T08:34:19.855Z,25.17
2023-02-13T08:36:47.803Z,22.17
2023-02-13T08:39:15.808Z,26.30
2023-02-13T08:41:43.836Z,23.58
2023-02-13T08:44:12.356Z,22.83
2023-02-13T08:46:40.850Z,23.35
2023-02-13T08:49:08.852Z,20.48
2023-02-13T08:51:37.881Z,16.77
2023-02-13T08:54:06.014Z,20.05
2023-02-13T08:56:35.209Z,19.77
2023-02-13T08:59:03.598Z,18.33
2023-02-13T09:01:32.103Z,21.45
2023-02-13T09:04:00.776Z,19.65
2023-02-13T09:06:30.025Z,20.40
2023-02-13T09:08:58.712Z,17.38
2023-02-13T09:11:27.192Z,16.98
2023-02-13T09:13:55.578Z,17.63
2023-02-13T09:16:24.243Z,27.00
2023-02-13T09:18:53.342Z,29.27
2023-02-13T09:21:25.776Z,27.10
2023-02-13T09:23:55.412Z,20.65
2023-02-13T09:26:24.079Z,18.88
2023-02-13T09:28:52.035Z,17.45
2023-02-13T09:31:21.701Z,13.55
2023-02-13T09:33:50.522Z,12.52
2023-02-13T09:36:21.354Z,13.10
2023-02-13T09:38:54.011Z,10.45
2023-02-13T09:41:37.917Z,7.78
2023-02-13T09:44:35.625Z,19.13
2023-02-13T09:47:20.068Z,17.15
2023-02-13T09:49:55.886Z,19.38
2023-02-13T09:52:34.187Z,23.25
2023-02-13T09:55:04.393Z,31.80
2023-02-13T09:57:40.954Z,19.95
2023-02-13T10:00:19.348Z,20.40
2023-02-13T10:03:02.421Z,22.45
2023-02-13T10:06:09.916Z,14.88
2023-02-13T10:08:44.322Z,10.82
2023-02-13T10:11:50.497Z,11.55
2023-02-13T10:14:32.697Z,11.68
2023-02-13T10:17:14.860Z,13.17
2023-02-13T10:19:50.317Z,13.20
2023-02-13T10:22:46.708Z,11.70
2023-02-13T10:25:27.471Z,11.00
2023-02-13T10:28:10.076Z,13.15
2023-02-13T10:30:50.998Z,8.77
2023-02-13T10:33:28.886Z,10.30
2023-02-13T10:36:06.890Z,10.30
2023-02-13T10:38:41.395Z,8.55
2023-02-13T10:41:46.700Z,8.52
2023-02-13T10:44:33.362Z,8.27
2023-02-13T10:47:26.785Z,10.32
2023-02-13T10:50:12.903Z,7.60
2023-02-13T10:53:07.577Z,6.20
2023-02-13T10:56:05.089Z,6.88
2023-02-13T10:58:57.462Z,6.88
2023-02-13T11:01:35.004Z,7.82
2023-02-13T11:04:18.237Z,14.43
2023-02-13T11:07:13.618Z,7.97
2023-02-13T11:09:44.728Z,8.38
2023-02-13T11:12:28.616Z,10.55
2023-02-13T11:15:05.073Z,5.95
2023-02-13T11:25:35.773Z,9.38
2023-02-13T11:28:26.857Z,6.75
2023-02-13T11:31:25.204Z,6.88
2023-02-13T11:34:02.371Z,7.80
2023-02-13T11:36:46.466Z,7.32
2023-02-13T11:39:20.992Z,9.02
2023-02-13T11:41:53.192Z,8.15
2023-02-13T11:44:24.579Z,7.55
2023-02-13T11:46:55.687Z,8.00
2023-02-13T11:49:33.072Z,9.23
2023-02-13T11:52:04.552Z,6.38
2023-02-13T11:54:36.074Z,6.95
2023-02-13T11:57:22.531Z,5.78
2023-02-13T11:59:54.033Z,6.05
2023-02-13T12:02:52.407Z,5.50
2023-02-13T12:05:23.488Z,5.78
2023-02-13T12:07:52.396Z,6.95
2023-02-13T12:10:25.653Z,5.03
2023-02-13T12:15:27.662Z,5.15
2023-02-13T12:18:05.693Z,5.97
2023-02-13T12:20:53.921Z,7.00
2023-02-13T12:23:32.786Z,6.90
2023-02-13T12:26:04.206Z,6.53
2023-02-13T12:28:51.729Z,8.23
2023-02-13T12:31:34.242Z,5.88
2023-02-13T12:34:29.663Z,5.83
2023-02-13T12:37:26.177Z,9.80
2023-02-13T12:40:24.085Z,6.82
2023-02-13T12:42:55.224Z,6.50
2023-02-13T12:45:23.347Z,7.35
2023-02-13T12:48:21.843Z,10.00
2023-02-13T12:51:02.969Z,7.30
2023-02-13T12:53:46.462Z,6.65
2023-02-13T12:56:17.871Z,9.40
2023-02-13T12:59:14.164Z,7.88
2023-02-13T13:02:22.531Z,10.90
2023-02-13T13:05:02.256Z,7.05
2023-02-13T13:07:56.295Z,8.23
2023-02-13T13:10:48.302Z,9.67
2023-02-13T13:13:50.134Z,7.20
2023-02-13T13:16:28.006Z,6.85
2023-02-13T13:19:02.626Z,6.68
2023-02-13T13:22:06.051Z,5.68
2023-02-13T13:24:45.817Z,6.13
2023-02-13T13:27:24.256Z,5.78
2023-02-13T13:30:00.136Z,7.70
2023-02-13T13:32:30.082Z,8.32
2023-02-13T13:34:59.246Z,6.65
2023-02-13T13:37:36.043Z,7.72
2023-02-13T13:40:29.929Z,5.85
2023-02-13T13:43:20.241Z,7.72
2023-02-13T13:45:59.315Z,6.93
2023-02-13T13:48:31.924Z,6.63
2023-02-13T13:51:01.338Z,8.07
2023-02-13T13:53:29.834Z,9.75
2023-02-13T13:56:03.301Z,8.23
2023-02-13T13:58:42.753Z,11.43
2023-02-13T14:01:26.419Z,7.13
2023-02-13T14:03:58.908Z,7.97
2023-02-13T14:06:49.918Z,6.72
2023-02-13T14:09:28.498Z,8.80
2023-02-13T14:11:58.858Z,6.25
2023-02-13T14:14:36.553Z,8.95
2023-02-13T14:19:57.066Z,7.95
2023-02-13T14:22:38.197Z,6.63
2023-02-13T14:28:52.241Z,8.13
2023-02-13T14:31:45.448Z,7.70
2023-02-13T14:34:42.255Z,6.18
2023-02-13T14:37:37.129Z,7.15
2023-02-13T14:40:53.554Z,10.85
2023-02-13T14:43:54.100Z,10.48
2023-02-13T14:47:07.131Z,9.77
2023-02-13T14:51:34.399Z,7.45
2023-02-13T14:54:53.213Z,7.38
2023-02-13T14:58:43.016Z,8.32
2023-02-13T15:15:33.570Z,8.43
2023-02-13T15:23:33.277Z,7.60
2023-02-13T15:26:58.708Z,8.20
2023-02-13T15:31:10.860Z,9.73
2023-02-13T15:38:25.297Z,12.15
2023-02-13T15:41:43.036Z,11.13
2023-02-13T15:48:43.551Z,15.45
2023-02-13T15:54:57.960Z,10.15
2023-02-13T15:57:55.010Z,10.02
2023-02-13T16:01:09.184Z,10.90
2023-02-13T16:05:26.512Z,13.82
2023-02-13T16:22:21.189Z,12.75
2023-02-13T16:54:50.665Z,26.27
2023-02-13T16:57:31.750Z,30.17
2023-02-13T17:00:05.676Z,29.33
2023-02-13T17:02:38.716Z,32.53
2023-02-13T17:05:09.049Z,26.60
2023-02-13T17:07:53.420Z,34.58
2023-02-13T17:10:27.453Z,52.40
2023-02-13T17:12:59.705Z,101.15
2023-02-13T17:15:31.108Z,90.93
2023-02-13T17:18:00.179Z,114.30
2023-02-13T17:20:31.236Z,81.53
2023-02-13T17:23:01.583Z,65.03
2023-02-13T17:25:35.739Z,57.90
2023-02-13T17:28:13.538Z,420.20
2023-02-13T17:30:42.180Z,164.23
2023-02-13T17:33:40.275Z,132.85
2023-02-13T17:36:11.654Z,70.10
2023-02-13T17:38:40.117Z,62.65
2023-02-13T17:41:15.459Z,57.55
2023-02-13T17:43:43.526Z,66.07
2023-02-13T17:46:11.755Z,62.00
2023-02-13T17:48:39.885Z,56.22
2023-02-13T17:51:19.610Z,48.83
2023-02-13T17:53:48.148Z,50.97
2023-02-13T17:56:16.133Z,49.20
2023-02-13T17:58:44.257Z,47.85
2023-02-13T18:01:12.437Z,45.42
2023-02-13T18:03:40.690Z,43.10
2023-02-13T18:06:12.991Z,41.45
2023-02-13T18:08:40.980Z,47.38
2023-02-13T18:11:12.523Z,54.63
2023-02-13T18:13:46.102Z,48.08
2023-02-13T18:16:15.459Z,36.35
2023-02-13T18:18:43.772Z,31.42
2023-02-13T18:21:12.706Z,30.15
2023-02-13T18:23:43.247Z,31.38
2023-02-13T18:26:12.511Z,35.85
2023-02-13T18:28:41.383Z,46.22
2023-02-13T18:31:11.214Z,54.88
2023-02-13T18:33:40.807Z,54.55
2023-02-13T18:36:10.076Z,52.15
2023-02-13T18:38:39.340Z,55.63
2023-02-13T18:41:08.335Z,61.35
2023-02-13T18:43:37.073Z,96.78
2023-02-13T18:46:05.916Z,117.78
2023-02-13T18:48:34.482Z,70.25
2023-02-13T18:51:03.210Z,48.55
2023-02-13T18:53:31.857Z,51.35
2023-02-13T18:56:10.673Z,46.15
2023-02-13T18:58:39.464Z,51.80
2023-02-13T19:01:16.179Z,53.15
2023-02-13T19:03:48.930Z,49.00
2023-02-13T19:06:23.882Z,46.88
2023-02-13T19:08:52.506Z,51.10
2023-02-13T19:11:24.280Z,53.42
2023-02-13T19:14:00.734Z,52.15
2023-02-13T19:16:32.627Z,37.83
2023-02-13T19:19:03.244Z,45.70
2023-02-13T19:21:34.111Z,44.72
2023-02-13T19:24:04.651Z,36.00
2023-02-13T19:26:36.746Z,49.03
2023-02-13T19:29:05.250Z,47.20
2023-02-13T19:31:34.367Z,35.47
2023-02-13T19:34:05.883Z,37.08
2023-02-13T19:36:34.293Z,39.08
2023-02-13T19:39:08.861Z,31.80
2023-02-13T19:41:37.601Z,33.28
2023-02-13T19:44:05.900Z,34.58
2023-02-13T19:46:34.401Z,30.80
2023-02-13T19:49:03.654Z,29.08
2023-02-13T19:51:33.601Z,29.17
2023-02-13T19:54:26.586Z,40.53
2023-02-13T19:56:59.910Z,39.42
2023-02-13T20:01:56.282Z,41.00
2023-02-13T20:04:25.265Z,38.40
2023-02-13T20:06:58.651Z,59.45
2023-02-13T20:11:54.697Z,43.50
2023-02-13T20:14:25.953Z,46.47
2023-02-13T20:17:00.248Z,48.20
2023-02-13T20:19:32.201Z,42.17
2023-02-13T20:22:02.077Z,42.67
2023-02-13T20:24:38.108Z,38.25
2023-02-13T20:27:07.190Z,37.97
2023-02-13T20:29:38.482Z,30.58
2023-02-13T20:32:07.348Z,25.77
2023-02-13T20:34:58.382Z,30.75
2023-02-13T20:37:38.854Z,32.40
2023-02-13T20:40:08.860Z,31.92
2023-02-13T20:42:38.024Z,29.58
2023-02-13T20:45:07.560Z,30.45
2023-02-13T20:47:36.185Z,30.55
2023-02-13T20:50:08.849Z,37.85
2023-02-13T20:52:40.188Z,29.60
2023-02-13T20:55:09.749Z,34.40
2023-02-13T20:57:38.358Z,30.55
2023-02-13T21:00:09.656Z,28.00
2023-02-13T21:02:38.501Z,31.58
2023-02-13T21:05:07.681Z,29.02
2023-02-13T21:07:36.305Z,29.67
2023-02-13T21:10:07.071Z,26.48
2023-02-13T21:12:36.170Z,25.05
2023-02-13T21:15:13.331Z,27.13
2023-02-13T21:17:41.859Z,26.90
2023-02-13T21:20:11.811Z,27.25
2023-02-13T21:22:40.424Z,24.08
2023-02-13T21:25:19.034Z,23.67
2023-02-13T21:27:47.670Z,24.70
2023-02-13T21:30:16.837Z,27.10
2023-02-13T21:32:45.804Z,22.35
2023-02-13T21:35:14.615Z,28.17
2023-02-13T21:37:45.030Z,27.35
2023-02-13T21:40:13.485Z,25.13
2023-02-13T21:42:42.082Z,28.33
2023-02-13T21:45:12.057Z,26.70
2023-02-13T21:47:40.381Z,29.25
2023-02-13T21:50:09.317Z,31.65
2023-02-13T21:52:38.321Z,31.95
2023-02-13T21:55:08.873Z,26.60
2023-02-13T21:57:37.562Z,27.33
2023-02-13T22:00:10.336Z,29.65
2023-02-13T22:02:41.649Z,29.02
2023-02-13T22:05:10.524Z,28.05
2023-02-13T22:07:59.003Z,24.58
2023-02-13T22:10:30.588Z,25.70
2023-02-13T22:12:59.247Z,25.33
2023-02-13T22:15:28.671Z,21.90
2023-02-13T22:17:56.935Z,24.65
2023-02-13T22:20:25.728Z,27.08
2023-02-13T22:22:55.238Z,22.92
2023-02-13T22:25:23.845Z,23.63
2023-02-13T22:27:52.272Z,24.88
2023-02-13T22:30:20.746Z,26.98
2023-02-13T22:32:49.216Z,24.58
2023-02-13T22:35:20.070Z,29.27
2023-02-13T22:37:48.712Z,30.33
2023-02-13T22:40:17.058Z,26.38
2023-02-13T22:42:46.092Z,24.95
2023-02-13T22:45:14.815Z,27.10
2023-02-13T22:47:43.887Z,31.05
2023-02-13T22:50:12.571Z,24.88
2023-02-13T22:52:41.049Z,26.38
2023-02-13T22:55:09.481Z,28.10
2023-02-13T22:57:38.271Z,25.58
2023-02-13T23:00:09.977Z,28.13
2023-02-13T23:02:38.373Z,24.88
2023-02-13T23:05:07.580Z,27.30
2023-02-13T23:07:36.266Z,29.92
2023-02-13T23:10:05.562Z,28.92
2023-02-13T23:12:36.645Z,35.10
2023-02-13T23:15:08.877Z,32.95
2023-02-13T23:17:57.161Z,31.50
2023-02-13T23:20:26.450Z,35.67
2023-02-13T23:22:55.225Z,34.85
2023-02-13T23:25:23.837Z,28.40
2023-02-13T23:27:53.979Z,31.40
2023-02-13T23:30:24.000Z,34.17
2023-02-13T23:32:52.612Z,27.60
2023-02-13T23:35:21.205Z,27.92
2023-02-13T23:37:49.958Z,25.50
2023-02-13T23:40:19.588Z,26.13
2023-02-13T23:42:48.500Z,22.90
2023-02-13T23:45:16.857Z,20.60
2023-02-13T23:47:44.938Z,22.70
2023-02-13T23:50:13.437Z,21.02
2023-02-13T23:52:42.222Z,23.38
2023-02-13T23:55:10.621Z,22.55
2023-02-13T23:57:38.980Z,21.92
